Time;durP1;ratioP1;P1;durP2;ratioP2;P2;SDS_P1;SDS_P2;PMS_P1;PMS_P2;Temp;Humidity;BMP_temperature;BMP_pressure;BME280_temperature;BME280_humidity;BME280_pressure;Samples;Min_cycle;Max_cycle;Signal;HPM_P1;HPM_P2
2021/03/08 00:00:46;;;;;;;15.75;12.45;;;;;;;;;;4858100;29;20980;-87
2021/03/08 00:03:40;;;;;;;15.40;12.57;;;;;;;;;;4812619;29;20452;-87
2021/03/08 00:06:49;;;;;;;19.45;14.13;;;;;;;;;;4896774;28;20421;-86
2021/03/08 00:13:09;;;;;;;18.27;12.45;;;;;;;;;;4951136;28;20544;-87
2021/03/08 00:15:58;;;;;;;16.70;12.23;;;;;;;;;;4948192;28;20492;-87
2021/03/08 00:18:48;;;;;;;14.43;11.50;;;;;;;;;;5004538;28;20475;-87
2021/03/08 00:30:53;;;;;;;22.92;15.65;;;;;;;;;;1430103;26;20825;-87
2021/03/08 00:37:05;;;;;;;12.73;11.13;;;;;;;;;;4989295;28;22248;-87
2021/03/08 00:42:49;;;;;;;14.65;11.18;;;;;;;;;;4995094;28;20442;-87
2021/03/08 00:49:34;;;;;;;17.63;12.05;;;;;;;;;;4974289;28;20422;-88
2021/03/08 01:10:39;;;;;;;19.50;12.65;;;;;;;;;;4956638;28;20439;-87
2021/03/08 01:13:38;;;;;;;;;;;;;;;;;;;;;
2021/03/08 01:16:29;;;;;;;17.65;13.93;;;;;;;;;;4938904;28;20411;-88
2021/03/08 01:19:18;;;;;;;16.25;12.90;;;;;;;;;;4962602;28;20911;-87
2021/03/08 01:21:59;;;;;;;;;;;;;;;;;;;;;
2021/03/08 01:25:13;;;;;;;15.02;12.50;;;;;;;;;;4954570;28;20791;-87
2021/03/08 01:27:33;;;;;;;16.02;12.60;;;;;;;;;;4968723;28;22031;-88
2021/03/08 01:30:02;;;;;;;17.20;12.88;;;;;;;;;;4951799;28;20418;-87
2021/03/08 01:32:57;;;;;;;16.70;13.10;;;;;;;;;;4967427;28;20506;-87
2021/03/08 01:35:33;;;;;;;18.65;13.07;;;;;;;;;;4961010;28;20422;-87
2021/03/08 01:38:13;;;;;;;19.10;13.23;;;;;;;;;;4969395;28;20417;-87
2021/03/08 01:40:43;;;;;;;16.52;12.70;;;;;;;;;;4978960;28;20395;-87
2021/03/08 01:43:19;;;;;;;19.80;14.10;;;;;;;;;;4971211;28;20429;-87
2021/03/08 01:45:57;;;;;;;;;;;;;;;;;;;;;
2021/03/08 01:48:43;;;;;;;17.55;13.43;;;;;;;;;;4986879;28;20912;-87
2021/03/08 01:51:20;;;;;;;17.90;13.95;;;;;;;;;;4975603;28;20414;-87
2021/03/08 01:56:37;;;;;;;17.73;13.88;;;;;;;;;;5010641;28;20535;-87
2021/03/08 01:59:06;;;;;;;20.88;13.77;;;;;;;;;;4995976;28;20419;-87
2021/03/08 02:01:41;;;;;;;19.75;14.02;;;;;;;;;;4994413;28;20422;-87
2021/03/08 02:04:27;;;;;;;15.90;12.70;;;;;;;;;;4996248;28;20403;-88
2021/03/08 02:07:09;;;;;;;;;;;;;;;;;;;;;
2021/03/08 02:13:44;;;;;;;17.67;14.03;;;;;;;;;;4997948;28;20417;-87
2021/03/08 02:16:45;;;;;;;;;;;;;;;;;;;;;
2021/03/08 02:19:18;;;;;;;18.83;14.15;;;;;;;;;;5012058;28;20425;-87
2021/03/08 02:22:06;;;;;;;18.98;13.80;;;;;;;;;;5009206;28;20525;-87
2021/03/08 02:31:29;;;;;;;20.13;13.95;;;;;;;;;;4944511;28;20820;-87
2021/03/08 02:37:38;;;;;;;17.00;13.63;;;;;;;;;;4899553;29;20467;-87
2021/03/08 02:43:38;;;;;;;17.95;13.65;;;;;;;;;;4933379;28;20496;-87
2021/03/08 02:50:12;;;;;;;;;;;;;;;;;;;;;
2021/03/08 02:59:22;;;;;;;;;;;;;;;;;;;;;
2021/03/08 03:08:34;;;;;;;;;;;;;;;;;;;;;
2021/03/08 03:14:43;;;;;;;;;;;;;;;;;;;;;
2021/03/08 03:31:03;;;;;;;;;;;;;;;;;;;;;
2021/03/08 03:33:26;;;;;;;20.08;15.75;;;;;;;;;;4778576;29;20453;-88
2021/03/08 03:36:22;;;;;;;;;;;;;;;;;;;;;
2021/03/08 03:39:13;;;;;;;;;;;;;;;;;;;;;
2021/03/08 03:51:40;;;;;;;;;;;;;;;;;;;;;
2021/03/08 03:54:45;;;;;;;;;;;;;;;;;;;;;
2021/03/08 03:57:30;;;;;;;22.48;18.70;;;;;;;;;;4955150;28;20459;-89
2021/03/08 04:06:46;;;;;;;26.13;19.73;;;;;;;;;;4979107;28;20452;-85
2021/03/08 04:22:53;;;;;;;;;;;;;;;;;;;;;
2021/03/08 04:26:10;;;;;;;;;;;;;;;;;;;;;
2021/03/08 04:32:20;;;;;;;22.67;18.63;;;;;;;;;;4886708;29;20540;-86
2021/03/08 04:34:52;;;;;;;28.27;19.92;;;;;;;;;;4926401;29;20443;-86
2021/03/08 04:37:48;;;;;;;23.92;19.23;;;;;;;;;;4910732;29;21002;-86
2021/03/08 04:40:24;;;;;;;25.80;19.95;;;;;;;;;;4917246;29;20489;-86
2021/03/08 04:46:29;;;;;;;26.40;20.63;;;;;;;;;;4918352;29;20569;-86
2021/03/08 04:52:17;;;;;;;26.08;20.98;;;;;;;;;;4886956;29;20510;-86
2021/03/08 04:55:05;;;;;;;28.42;21.80;;;;;;;;;;4900899;28;20459;-87
2021/03/08 05:01:01;;;;;;;;;;;;;;;;;;;;;
2021/03/08 05:13:30;;;;;;;30.83;22.20;;;;;;;;;;4992732;28;20496;-86
2021/03/08 05:16:35;;;;;;;28.75;21.95;;;;;;;;;;5008292;28;20455;-86
2021/03/08 05:19:01;;;;;;;33.47;22.75;;;;;;;;;;5005057;28;20754;-86
2021/03/08 05:21:27;;;;;;;30.88;22.23;;;;;;;;;;4990243;28;20405;-87
2021/03/08 05:23:53;;;;;;;26.60;20.92;;;;;;;;;;4983639;28;20411;-86
2021/03/08 05:26:19;;;;;;;27.33;20.45;;;;;;;;;;4985936;28;20424;-89
2021/03/08 05:28:45;;;;;;;25.83;19.73;;;;;;;;;;4999693;28;20513;-87
2021/03/08 05:31:11;;;;;;;27.48;21.48;;;;;;;;;;4985952;28;20467;-86
2021/03/08 05:33:37;;;;;;;34.45;21.30;;;;;;;;;;5005013;28;20435;-86
2021/03/08 05:36:03;;;;;;;24.90;19.27;;;;;;;;;;5005645;28;20424;-86
2021/03/08 05:38:30;;;;;;;27.45;20.70;;;;;;;;;;4988030;28;20404;-86
2021/03/08 05:41:06;;;;;;;25.67;19.38;;;;;;;;;;5003059;28;20448;-86
2021/03/08 05:43:34;;;;;;;27.85;19.58;;;;;;;;;;4983734;28;20480;-87
2021/03/08 05:46:01;;;;;;;23.85;18.38;;;;;;;;;;4999588;28;20454;-87
2021/03/08 05:48:30;;;;;;;23.95;19.15;;;;;;;;;;5003796;28;20926;-87
2021/03/08 05:51:07;;;;;;;25.55;19.35;;;;;;;;;;5002880;28;20480;-87
2021/03/08 05:53:36;;;;;;;25.83;19.45;;;;;;;;;;5007901;28;20413;-87
2021/03/08 05:56:20;;;;;;;23.77;19.00;;;;;;;;;;5002234;28;20408;-87
2021/03/08 05:59:05;;;;;;;24.00;18.83;;;;;;;;;;4985722;28;20445;-86
2021/03/08 06:01:37;;;;;;;25.40;19.83;;;;;;;;;;5002051;28;20436;-87
2021/03/08 06:04:09;;;;;;;27.63;20.13;;;;;;;;;;5001667;28;20400;-87
2021/03/08 06:06:38;;;;;;;26.17;19.38;;;;;;;;;;5002080;28;20534;-87
2021/03/08 06:09:13;;;;;;;24.13;19.45;;;;;;;;;;5002254;28;22340;-87
2021/03/08 06:11:39;;;;;;;22.55;18.52;;;;;;;;;;5001734;28;21278;-87
2021/03/08 06:14:05;;;;;;;28.63;20.43;;;;;;;;;;5000267;28;20408;-87
2021/03/08 06:16:35;;;;;;;30.52;21.80;;;;;;;;;;5000923;28;20417;-87
2021/03/08 06:19:04;;;;;;;28.10;20.88;;;;;;;;;;5000231;28;22862;-87
2021/03/08 06:21:31;;;;;;;28.17;21.25;;;;;;;;;;4988676;28;20417;-87
2021/03/08 06:23:57;;;;;;;33.67;20.73;;;;;;;;;;5000553;28;20458;-87
2021/03/08 06:26:23;;;;;;;24.92;20.05;;;;;;;;;;5000975;28;20499;-88
2021/03/08 06:28:50;;;;;;;26.30;20.60;;;;;;;;;;4980832;28;20407;-87
2021/03/08 06:31:16;;;;;;;27.65;19.80;;;;;;;;;;5015775;28;20452;-87
2021/03/08 06:33:42;;;;;;;25.70;20.02;;;;;;;;;;5001723;28;20508;-87
2021/03/08 06:36:08;;;;;;;24.25;19.48;;;;;;;;;;5004348;28;20850;-87
2021/03/08 06:38:34;;;;;;;24.83;19.27;;;;;;;;;;4990157;28;20515;-88
2021/03/08 06:41:00;;;;;;;27.52;20.15;;;;;;;;;;5003673;28;20895;-88
2021/03/08 06:43:29;;;;;;;25.40;19.13;;;;;;;;;;5005634;28;20441;-88
2021/03/08 06:45:55;;;;;;;26.52;19.45;;;;;;;;;;4988904;28;20489;-87
2021/03/08 06:48:21;;;;;;;25.23;19.48;;;;;;;;;;4988194;28;20420;-87
2021/03/08 06:50:47;;;;;;;26.52;19.02;;;;;;;;;;4987692;28;20919;-87
2021/03/08 06:53:29;;;;;;;23.13;18.90;;;;;;;;;;4989375;28;20420;-88
2021/03/08 06:56:15;;;;;;;25.02;18.15;;;;;;;;;;5007241;28;20499;-87
2021/03/08 06:58:41;;;;;;;26.97;18.20;;;;;;;;;;5011369;28;20448;-89
2021/03/08 07:01:28;;;;;;;21.00;17.35;;;;;;;;;;4990947;28;20940;-88
2021/03/08 07:03:57;;;;;;;23.52;17.25;;;;;;;;;;5008541;28;20469;-88
2021/03/08 07:06:23;;;;;;;22.47;17.33;;;;;;;;;;4989039;28;20408;-88
2021/03/08 07:08:49;;;;;;;23.35;16.67;;;;;;;;;;5012410;28;20408;-88
2021/03/08 07:11:16;;;;;;;20.77;16.30;;;;;;;;;;4990242;28;20468;-88
2021/03/08 07:13:41;;;;;;;22.55;16.80;;;;;;;;;;5005716;28;20420;-88
2021/03/08 07:16:07;;;;;;;19.17;15.15;;;;;;;;;;5006265;28;20409;-89
2021/03/08 07:18:33;;;;;;;19.70;14.65;;;;;;;;;;4987918;28;20433;-89
2021/03/08 07:21:18;;;;;;;16.27;13.75;;;;;;;;;;4988702;28;20475;-88
2021/03/08 07:23:45;;;;;;;16.13;13.00;;;;;;;;;;5008806;28;20420;-87
2021/03/08 07:26:17;;;;;;;18.93;13.83;;;;;;;;;;4989732;28;20529;-87
2021/03/08 07:28:44;;;;;;;18.88;13.13;;;;;;;;;;5005007;28;20420;-89
2021/03/08 07:31:10;;;;;;;14.18;12.55;;;;;;;;;;5000913;28;20919;-89
2021/03/08 07:33:36;;;;;;;16.05;12.68;;;;;;;;;;5006932;28;20539;-89
2021/03/08 07:36:10;;;;;;;14.10;11.63;;;;;;;;;;4994934;28;20393;-88
2021/03/08 07:38:37;;;;;;;17.23;13.30;;;;;;;;;;5011184;28;20410;-88
2021/03/08 07:41:12;;;;;;;15.65;12.98;;;;;;;;;;5005170;28;20410;-89
2021/03/08 07:43:38;;;;;;;16.95;13.13;;;;;;;;;;5011017;28;20401;-89
2021/03/08 07:46:04;;;;;;;15.50;12.88;;;;;;;;;;4990182;28;20428;-85
2021/03/08 07:48:30;;;;;;;15.98;13.15;;;;;;;;;;4994029;28;20425;-86
2021/03/08 07:50:56;;;;;;;19.77;13.45;;;;;;;;;;5008922;28;20924;-86
2021/03/08 07:53:23;;;;;;;18.75;13.65;;;;;;;;;;5008383;28;20420;-86
2021/03/08 07:55:48;;;;;;;18.92;13.48;;;;;;;;;;4992325;28;20405;-86
2021/03/08 07:58:14;;;;;;;15.15;12.80;;;;;;;;;;4998713;28;20405;-86
2021/03/08 08:00:40;;;;;;;16.80;13.13;;;;;;;;;;5009321;28;20476;-86
2021/03/08 08:03:06;;;;;;;21.48;13.15;;;;;;;;;;5007900;28;20410;-86
2021/03/08 08:05:32;;;;;;;13.63;11.32;;;;;;;;;;5005808;28;20430;-85
2021/03/08 08:07:58;;;;;;;15.68;12.32;;;;;;;;;;4990964;28;20412;-86
2021/03/08 08:10:24;;;;;;;14.13;11.40;;;;;;;;;;5001596;28;20418;-86
2021/03/08 08:12:50;;;;;;;16.90;12.00;;;;;;;;;;4992218;28;20508;-86
2021/03/08 08:15:17;;;;;;;14.38;11.35;;;;;;;;;;5004349;28;20856;-86
2021/03/08 08:17:42;;;;;;;13.90;11.20;;;;;;;;;;5011249;28;20416;-89
2021/03/08 08:20:12;;;;;;;14.55;11.45;;;;;;;;;;5011513;28;20416;-90
2021/03/08 08:22:39;;;;;;;17.00;11.20;;;;;;;;;;5011673;28;20436;-86
2021/03/08 08:25:05;;;;;;;14.50;10.00;;;;;;;;;;4991808;28;20415;-85
2021/03/08 08:27:34;;;;;;;13.27;10.18;;;;;;;;;;5011303;28;20405;-88
2021/03/08 08:30:03;;;;;;;11.57;9.80;;;;;;;;;;5009344;28;20411;-87
2021/03/08 08:32:48;;;;;;;10.73;9.55;;;;;;;;;;4985538;28;20447;-89
2021/03/08 08:35:21;;;;;;;14.68;8.80;;;;;;;;;;5006347;28;20412;-87
2021/03/08 08:38:17;;;;;;;10.45;9.35;;;;;;;;;;4995078;28;20405;-88
2021/03/08 08:40:44;;;;;;;11.52;9.88;;;;;;;;;;4994565;28;20765;-87
2021/03/08 08:43:19;;;;;;;12.02;9.90;;;;;;;;;;4994547;28;20844;-88
2021/03/08 08:45:49;;;;;;;11.70;10.23;;;;;;;;;;5011120;28;20396;-86
2021/03/08 08:48:15;;;;;;;11.25;10.05;;;;;;;;;;5001062;28;20972;-87
2021/03/08 08:50:51;;;;;;;15.73;9.43;;;;;;;;;;5005053;28;20414;-87
2021/03/08 08:53:29;;;;;;;11.52;8.52;;;;;;;;;;4997872;28;20398;-87
2021/03/08 08:55:55;;;;;;;11.55;8.75;;;;;;;;;;5007449;28;20397;-87
2021/03/08 08:58:41;;;;;;;9.40;8.35;;;;;;;;;;5007614;28;20942;-88
2021/03/08 09:04:10;;;;;;;8.27;7.40;;;;;;;;;;5011592;28;20393;-88
2021/03/08 09:06:55;;;;;;;9.40;7.63;;;;;;;;;;4992669;28;20498;-87
2021/03/08 09:09:35;;;;;;;11.55;8.05;;;;;;;;;;5007160;28;20427;-87
2021/03/08 09:12:04;;;;;;;12.23;8.07;;;;;;;;;;5009835;28;20447;-88
2021/03/08 09:14:49;;;;;;;8.93;7.80;;;;;;;;;;5009736;28;20435;-88
2021/03/08 09:17:18;;;;;;;10.05;8.65;;;;;;;;;;5002720;28;20983;-89
2021/03/08 09:19:46;;;;;;;10.57;7.55;;;;;;;;;;4993052;28;20959;-91
2021/03/08 09:22:28;;;;;;;8.82;7.05;;;;;;;;;;4992663;28;20393;-87
2021/03/08 09:24:58;;;;;;;7.85;6.90;;;;;;;;;;5004447;28;20442;-87
2021/03/08 09:27:32;;;;;;;7.90;7.18;;;;;;;;;;5006242;28;20417;-87
2021/03/08 09:30:03;;;;;;;7.32;6.68;;;;;;;;;;4994636;28;20420;-88
2021/03/08 09:32:29;;;;;;;7.28;6.32;;;;;;;;;;5009148;28;20433;-88
2021/03/08 09:35:07;;;;;;;7.63;6.00;;;;;;;;;;4992594;28;20412;-87
2021/03/08 09:37:33;;;;;;;6.13;5.63;;;;;;;;;;4992885;28;20419;-87
2021/03/08 09:39:59;;;;;;;7.03;6.43;;;;;;;;;;4990641;28;20406;-87
2021/03/08 09:42:28;;;;;;;10.90;7.70;;;;;;;;;;5006483;28;20429;-88
2021/03/08 09:44:54;;;;;;;8.80;6.43;;;;;;;;;;5016346;28;20762;-88
2021/03/08 09:47:28;;;;;;;7.80;7.10;;;;;;;;;;4993232;28;20767;-88
2021/03/08 09:49:57;;;;;;;7.28;6.18;;;;;;;;;;4987039;28;20433;-88
2021/03/08 09:52:33;;;;;;;7.00;6.35;;;;;;;;;;5009919;28;20416;-88
2021/03/08 09:54:59;;;;;;;7.10;6.50;;;;;;;;;;4992767;28;20410;-88
2021/03/08 09:57:34;;;;;;;6.40;5.90;;;;;;;;;;4983073;28;20757;-88
2021/03/08 10:00:05;;;;;;;7.60;6.67;;;;;;;;;;5000530;28;20417;-88
2021/03/08 10:02:31;;;;;;;7.00;6.45;;;;;;;;;;5006232;28;21045;-88
2021/03/08 10:04:59;;;;;;;10.68;7.60;;;;;;;;;;4991161;28;20420;-91
2021/03/08 10:07:26;;;;;;;8.35;6.40;;;;;;;;;;4988698;28;20414;-88
2021/03/08 10:10:18;;;;;;;6.90;6.20;;;;;;;;;;4995597;28;20499;-88
2021/03/08 10:12:44;;;;;;;8.02;6.22;;;;;;;;;;5011108;28;20400;-88
2021/03/08 10:15:13;;;;;;;8.35;6.00;;;;;;;;;;4996611;28;20462;-89
2021/03/08 10:17:51;;;;;;;7.22;6.28;;;;;;;;;;4997629;28;20401;-89
2021/03/08 10:20:17;;;;;;;7.97;6.45;;;;;;;;;;4997328;28;20497;-89
2021/03/08 10:22:43;;;;;;;9.40;6.90;;;;;;;;;;4997146;28;21017;-88
2021/03/08 10:25:32;;;;;;;6.53;5.93;;;;;;;;;;4996105;28;20411;-89
2021/03/08 10:28:01;;;;;;;7.00;6.30;;;;;;;;;;5013651;28;20907;-89
2021/03/08 10:30:28;;;;;;;6.78;6.00;;;;;;;;;;4993591;28;20557;-88
2021/03/08 10:32:56;;;;;;;5.85;5.35;;;;;;;;;;5028257;28;20401;-88
2021/03/08 10:35:27;;;;;;;6.40;5.80;;;;;;;;;;4994038;28;20565;-88
2021/03/08 10:37:53;;;;;;;6.20;5.60;;;;;;;;;;5020696;28;20429;-88
2021/03/08 10:40:19;;;;;;;5.95;4.78;;;;;;;;;;4992704;28;20769;-88
2021/03/08 10:42:48;;;;;;;9.10;5.72;;;;;;;;;;5011609;28;20428;-89
2021/03/08 10:45:14;;;;;;;6.00;5.50;;;;;;;;;;4993441;28;20413;-88
2021/03/08 10:47:45;;;;;;;5.45;4.90;;;;;;;;;;5010323;28;20937;-89
2021/03/08 10:50:11;;;;;;;5.40;4.90;;;;;;;;;;4996439;28;20415;-88
2021/03/08 10:52:37;;;;;;;4.88;4.40;;;;;;;;;;4995578;28;20417;-88
2021/03/08 10:55:04;;;;;;;4.18;3.70;;;;;;;;;;4994059;28;20909;-89
2021/03/08 10:57:50;;;;;;;4.85;4.28;;;;;;;;;;5011726;28;20436;-88
2021/03/08 11:00:26;;;;;;;4.60;4.30;;;;;;;;;;5012543;28;20459;-88
2021/03/08 11:02:55;;;;;;;5.50;4.17;;;;;;;;;;5009631;28;20444;-88
2021/03/08 11:05:23;;;;;;;4.87;3.97;;;;;;;;;;5011401;28;20467;-88
2021/03/08 11:07:49;;;;;;;6.93;4.03;;;;;;;;;;5012021;28;20506;-89
2021/03/08 11:10:15;;;;;;;7.77;5.00;;;;;;;;;;4992965;28;20782;-90
2021/03/08 11:12:41;;;;;;;4.50;4.20;;;;;;;;;;5013365;28;20468;-87
2021/03/08 11:15:07;;;;;;;4.73;4.30;;;;;;;;;;5007729;28;20412;-87
2021/03/08 11:17:39;;;;;;;4.60;4.20;;;;;;;;;;4991687;28;20505;-88
2021/03/08 11:20:06;;;;;;;4.60;4.20;;;;;;;;;;5011622;28;20482;-88
2021/03/08 11:22:32;;;;;;;6.03;4.80;;;;;;;;;;5009609;28;20425;-89
2021/03/08 11:24:58;;;;;;;3.70;3.50;;;;;;;;;;4994424;28;20996;-87
2021/03/08 11:27:25;;;;;;;11.02;3.92;;;;;;;;;;4995714;28;20546;-89
2021/03/08 11:29:58;;;;;;;4.50;3.88;;;;;;;;;;5013526;28;20416;-89
2021/03/08 11:32:25;;;;;;;4.53;4.07;;;;;;;;;;4992240;28;20422;-88
2021/03/08 11:34:52;;;;;;;4.90;4.40;;;;;;;;;;5027395;28;20389;-88
2021/03/08 11:37:20;;;;;;;3.87;3.60;;;;;;;;;;4995466;28;20413;-89
2021/03/08 11:39:50;;;;;;;4.30;4.00;;;;;;;;;;5009065;28;20448;-89
2021/03/08 11:42:17;;;;;;;4.07;3.50;;;;;;;;;;4992638;28;20465;-89
2021/03/08 11:44:43;;;;;;;4.47;4.00;;;;;;;;;;5012556;28;20415;-89
2021/03/08 11:47:09;;;;;;;4.40;4.00;;;;;;;;;;5006364;28;20420;-88
2021/03/08 11:49:35;;;;;;;4.00;3.78;;;;;;;;;;5011353;28;20412;-89
2021/03/08 11:52:01;;;;;;;7.13;4.00;;;;;;;;;;5011114;28;22292;-89
2021/03/08 11:54:27;;;;;;;4.22;3.83;;;;;;;;;;5009055;28;20413;-88
2021/03/08 11:56:53;;;;;;;4.10;3.88;;;;;;;;;;4989580;28;20439;-88
2021/03/08 11:59:25;;;;;;;3.70;3.50;;;;;;;;;;5005901;28;20579;-90
2021/03/08 12:01:51;;;;;;;5.82;5.22;;;;;;;;;;5010564;28;20409;-87
2021/03/08 12:04:18;;;;;;;4.60;4.20;;;;;;;;;;5008374;28;20424;-89
2021/03/08 12:06:44;;;;;;;4.45;4.05;;;;;;;;;;4995054;28;20405;-87
2021/03/08 12:09:10;;;;;;;4.30;3.92;;;;;;;;;;4994230;28;20401;-87
2021/03/08 12:11:36;;;;;;;3.90;3.53;;;;;;;;;;4993745;28;20792;-88
2021/03/08 12:14:02;;;;;;;3.10;3.00;;;;;;;;;;4994831;28;20412;-88
2021/03/08 12:16:28;;;;;;;4.10;3.70;;;;;;;;;;5011785;28;20496;-87
2021/03/08 12:18:54;;;;;;;4.30;3.90;;;;;;;;;;5011295;28;20485;-87
2021/03/08 12:21:20;;;;;;;3.63;3.33;;;;;;;;;;4995283;28;20479;-87
2021/03/08 12:23:46;;;;;;;3.63;3.42;;;;;;;;;;4992985;28;20495;-87
2021/03/08 12:26:14;;;;;;;3.80;3.60;;;;;;;;;;4995181;28;20868;-86
2021/03/08 12:28:40;;;;;;;5.05;3.58;;;;;;;;;;4995654;28;20404;-88
2021/03/08 12:31:06;;;;;;;5.70;5.05;;;;;;;;;;4993854;28;20405;-86
2021/03/08 12:33:33;;;;;;;4.47;3.90;;;;;;;;;;4993051;28;20495;-86
2021/03/08 12:36:02;;;;;;;4.00;3.65;;;;;;;;;;5006543;28;20412;-88
2021/03/08 12:38:28;;;;;;;3.63;3.43;;;;;;;;;;5008179;28;20404;-88
2021/03/08 12:40:54;;;;;;;4.53;4.23;;;;;;;;;;4999229;28;20414;-89
2021/03/08 12:43:20;;;;;;;5.03;4.57;;;;;;;;;;5023795;28;20412;-88
2021/03/08 12:45:49;;;;;;;4.20;3.90;;;;;;;;;;4984058;28;20512;-88
2021/03/08 12:48:15;;;;;;;4.70;4.22;;;;;;;;;;5008014;28;20401;-88
2021/03/08 12:50:41;;;;;;;4.40;4.05;;;;;;;;;;4987642;28;20409;-88
2021/03/08 12:53:07;;;;;;;5.70;4.22;;;;;;;;;;5001640;28;20405;-88
2021/03/08 12:55:35;;;;;;;5.47;4.07;;;;;;;;;;5005270;28;20413;-88
2021/03/08 12:58:01;;;;;;;4.38;3.97;;;;;;;;;;4998914;28;20449;-88
2021/03/08 13:00:27;;;;;;;4.85;4.35;;;;;;;;;;4988518;28;20435;-88
2021/03/08 13:02:53;;;;;;;4.78;4.38;;;;;;;;;;5003988;28;20999;-88
2021/03/08 13:05:19;;;;;;;5.00;4.60;;;;;;;;;;5006007;28;20491;-88
2021/03/08 13:07:45;;;;;;;5.93;4.72;;;;;;;;;;5002143;28;20409;-88
2021/03/08 13:10:11;;;;;;;6.35;4.15;;;;;;;;;;5003184;28;20412;-86
2021/03/08 13:12:37;;;;;;;4.10;3.80;;;;;;;;;;5006040;28;20992;-88
2021/03/08 13:15:04;;;;;;;5.30;4.15;;;;;;;;;;5008669;28;20492;-87
2021/03/08 13:17:33;;;;;;;4.07;3.72;;;;;;;;;;5001921;28;20418;-87
2021/03/08 13:19:59;;;;;;;6.88;3.90;;;;;;;;;;5013988;28;20483;-87
2021/03/08 13:22:31;;;;;;;6.35;4.35;;;;;;;;;;4990405;28;20992;-87
2021/03/08 13:24:57;;;;;;;6.43;4.80;;;;;;;;;;4992437;28;20405;-87
2021/03/08 13:27:25;;;;;;;5.13;4.28;;;;;;;;;;5011267;28;20459;-87
2021/03/08 13:29:52;;;;;;;5.00;4.50;;;;;;;;;;5006801;28;20465;-87
2021/03/08 13:32:21;;;;;;;4.30;3.80;;;;;;;;;;4990269;28;20821;-87
2021/03/08 13:34:47;;;;;;;7.43;3.95;;;;;;;;;;4974208;28;20434;-87
2021/03/08 13:37:15;;;;;;;4.72;4.05;;;;;;;;;;5007001;28;20434;-87
2021/03/08 13:40:23;;;;;;;4.47;3.93;;;;;;;;;;4986213;28;20963;-89
2021/03/08 13:42:48;;;;;;;5.32;4.45;;;;;;;;;;4982438;28;20454;-89
2021/03/08 13:45:14;;;;;;;4.80;3.85;;;;;;;;;;4986070;28;20431;-89
2021/03/08 13:47:41;;;;;;;4.20;3.88;;;;;;;;;;4985561;28;20432;-87
2021/03/08 13:50:07;;;;;;;5.63;3.88;;;;;;;;;;4982127;28;20400;-86
2021/03/08 13:52:36;;;;;;;4.82;4.38;;;;;;;;;;4987315;28;20417;-87
2021/03/08 13:55:02;;;;;;;4.75;4.30;;;;;;;;;;4970602;28;20446;-87
2021/03/08 13:57:28;;;;;;;4.43;3.95;;;;;;;;;;4990931;28;20894;-87
2021/03/08 13:59:54;;;;;;;4.43;3.95;;;;;;;;;;4986927;28;20461;-87
2021/03/08 14:02:19;;;;;;;4.63;4.13;;;;;;;;;;4985761;28;20936;-87
2021/03/08 14:04:45;;;;;;;4.72;4.15;;;;;;;;;;4970876;28;20407;-87
2021/03/08 14:07:11;;;;;;;6.80;4.40;;;;;;;;;;4970834;28;20976;-88
2021/03/08 14:09:42;;;;;;;5.63;4.03;;;;;;;;;;4986906;28;20822;-91
2021/03/08 14:12:09;;;;;;;5.60;3.90;;;;;;;;;;4974442;28;20485;-89
2021/03/08 14:14:37;;;;;;;5.15;4.13;;;;;;;;;;4988865;28;20437;-88
2021/03/08 14:17:03;;;;;;;5.10;4.60;;;;;;;;;;4989702;28;20446;-88
2021/03/08 14:19:32;;;;;;;5.03;4.22;;;;;;;;;;4971105;28;20417;-88
2021/03/08 14:21:59;;;;;;;7.93;4.23;;;;;;;;;;4996344;28;20845;-87
2021/03/08 14:24:25;;;;;;;5.95;4.40;;;;;;;;;;4986704;28;20775;-87
2021/03/08 14:26:51;;;;;;;5.70;4.22;;;;;;;;;;5003834;28;20411;-93
2021/03/08 14:29:17;;;;;;;10.65;4.93;;;;;;;;;;4990295;28;20406;-88
2021/03/08 14:31:46;;;;;;;13.90;5.15;;;;;;;;;;4991082;28;20423;-88
2021/03/08 14:34:12;;;;;;;7.90;5.47;;;;;;;;;;4996647;28;20920;-87
2021/03/08 14:36:38;;;;;;;4.68;4.00;;;;;;;;;;4999618;28;20418;-88
2021/03/08 14:39:04;;;;;;;11.95;4.18;;;;;;;;;;5013111;28;20406;-88
2021/03/08 14:41:30;;;;;;;7.07;4.35;;;;;;;;;;5012419;28;20422;-88
2021/03/08 14:43:56;;;;;;;7.43;5.00;;;;;;;;;;5015360;28;20411;-88
2021/03/08 14:46:22;;;;;;;6.33;4.40;;;;;;;;;;4996545;28;20738;-88
2021/03/08 14:48:51;;;;;;;6.77;5.37;;;;;;;;;;5027363;28;20415;-89
2021/03/08 14:51:17;;;;;;;4.47;3.87;;;;;;;;;;5012957;28;20988;-87
2021/03/08 14:53:46;;;;;;;8.18;4.32;;;;;;;;;;5021635;28;20914;-88
2021/03/08 14:56:12;;;;;;;10.02;4.50;;;;;;;;;;5004914;28;20917;-87
2021/03/08 14:58:38;;;;;;;7.43;3.83;;;;;;;;;;5004513;28;20413;-88
2021/03/08 15:01:04;;;;;;;7.22;4.20;;;;;;;;;;5016264;28;20422;-88
2021/03/08 15:03:30;;;;;;;9.95;4.32;;;;;;;;;;5016580;28;21064;-88
2021/03/08 15:05:56;;;;;;;8.00;5.15;;;;;;;;;;5004818;28;20486;-92
2021/03/08 15:08:26;;;;;;;9.00;6.07;;;;;;;;;;4996992;28;20527;-89
2021/03/08 15:10:52;;;;;;;7.65;4.13;;;;;;;;;;4983815;28;20407;-85
2021/03/08 15:13:18;;;;;;;6.68;4.25;;;;;;;;;;5000196;28;20481;-87
2021/03/08 15:15:44;;;;;;;7.65;4.72;;;;;;;;;;5032827;28;20446;-87
2021/03/08 15:18:10;;;;;;;11.65;5.07;;;;;;;;;;4999815;28;20423;-85
2021/03/08 15:20:36;;;;;;;6.68;4.97;;;;;;;;;;5016450;28;20422;-86
2021/03/08 15:23:02;;;;;;;6.60;5.07;;;;;;;;;;5013772;28;20746;-87
2021/03/08 15:25:28;;;;;;;7.30;5.25;;;;;;;;;;4995548;28;20440;-88
2021/03/08 15:27:54;;;;;;;6.22;5.13;;;;;;;;;;4980500;28;20460;-88
2021/03/08 15:30:20;;;;;;;5.73;5.23;;;;;;;;;;5016166;28;20402;-87
2021/03/08 15:32:46;;;;;;;6.50;5.38;;;;;;;;;;4998974;28;20493;-87
2021/03/08 15:35:12;;;;;;;10.68;5.15;;;;;;;;;;5019143;28;20438;-87
2021/03/08 15:37:38;;;;;;;6.63;5.77;;;;;;;;;;4997049;28;20399;-88
2021/03/08 15:40:04;;;;;;;7.28;5.63;;;;;;;;;;4999217;28;20924;-87
2021/03/08 15:42:30;;;;;;;5.70;5.20;;;;;;;;;;5015653;28;20427;-86
2021/03/08 15:44:56;;;;;;;8.35;5.53;;;;;;;;;;5015102;28;20410;-86
2021/03/08 15:47:22;;;;;;;5.80;5.20;;;;;;;;;;4998546;28;20422;-86
2021/03/08 15:49:51;;;;;;;5.20;4.70;;;;;;;;;;4993529;28;20396;-88
2021/03/08 15:52:17;;;;;;;5.20;4.80;;;;;;;;;;4998219;28;20480;-87
2021/03/08 15:54:54;;;;;;;5.10;4.60;;;;;;;;;;5032398;28;20470;-87
2021/03/08 15:57:20;;;;;;;5.53;5.05;;;;;;;;;;4998120;28;20413;-87
2021/03/08 15:59:56;;;;;;;6.35;4.82;;;;;;;;;;4997045;28;20403;-88
2021/03/08 16:02:29;;;;;;;7.47;4.95;;;;;;;;;;5000109;28;20426;-86
2021/03/08 16:05:00;;;;;;;5.85;4.45;;;;;;;;;;5014948;28;20391;-87
2021/03/08 16:07:29;;;;;;;6.97;4.68;;;;;;;;;;4999195;28;20427;-87
2021/03/08 16:10:06;;;;;;;7.00;4.05;;;;;;;;;;5013591;28;20399;-88
2021/03/08 16:12:41;;;;;;;4.30;4.00;;;;;;;;;;5013158;28;20506;-87
2021/03/08 16:15:08;;;;;;;5.40;4.15;;;;;;;;;;4997787;28;20393;-87
2021/03/08 16:17:37;;;;;;;5.20;4.37;;;;;;;;;;5032906;28;20874;-87
2021/03/08 16:20:30;;;;;;;5.53;4.43;;;;;;;;;;4998547;28;20921;-88
2021/03/08 16:22:56;;;;;;;5.35;4.47;;;;;;;;;;5015526;28;20450;-88
2021/03/08 16:25:32;;;;;;;;;;;;;;;;;;;;;
2021/03/08 16:28:18;;;;;;;4.20;3.90;;;;;;;;;;5019435;28;20959;-87
2021/03/08 16:30:47;;;;;;;4.65;4.10;;;;;;;;;;5024208;28;20410;-87
2021/03/08 16:33:15;;;;;;;7.07;4.07;;;;;;;;;;4998048;28;20451;-87
2021/03/08 16:35:44;;;;;;;5.88;3.75;;;;;;;;;;5014854;28;20407;-87
2021/03/08 16:38:10;;;;;;;4.50;4.13;;;;;;;;;;5012879;28;20498;-87
2021/03/08 16:40:36;;;;;;;4.40;3.55;;;;;;;;;;5016586;28;20845;-87
2021/03/08 16:43:07;;;;;;;5.00;3.33;;;;;;;;;;5038823;28;20510;-87
2021/03/08 16:45:35;;;;;;;4.85;3.80;;;;;;;;;;5012597;28;20399;-87
2021/03/08 16:48:04;;;;;;;6.43;3.72;;;;;;;;;;5026976;28;20395;-86
2021/03/08 16:50:35;;;;;;;4.18;3.78;;;;;;;;;;5032026;28;20410;-86
2021/03/08 16:53:03;;;;;;;5.20;3.92;;;;;;;;;;5036649;28;20426;-87
2021/03/08 16:55:29;;;;;;;3.93;3.70;;;;;;;;;;4993900;28;20846;-87
2021/03/08 16:58:15;;;;;;;3.95;3.58;;;;;;;;;;5020814;28;20420;-88
2021/03/08 17:00:44;;;;;;;4.68;3.83;;;;;;;;;;5026523;28;20408;-87
2021/03/08 17:03:14;;;;;;;6.40;3.95;;;;;;;;;;5027142;28;22952;-88
2021/03/08 17:05:52;;;;;;;4.07;3.70;;;;;;;;;;5029256;28;20463;-88
2021/03/08 17:08:20;;;;;;;5.78;4.10;;;;;;;;;;5014010;28;20498;-88
2021/03/08 17:11:02;;;;;;;;;;;;;;;;;;;;;
2021/03/08 17:13:34;;;;;;;3.88;3.17;;;;;;;;;;4989554;28;20418;-88
2021/03/08 17:16:10;;;;;;;;;;;;;;;;;;;;;
2021/03/08 17:18:48;;;;;;;4.20;3.28;;;;;;;;;;4986939;28;20411;-88
2021/03/08 17:21:17;;;;;;;5.97;3.65;;;;;;;;;;4989112;28;20452;-87
2021/03/08 17:23:48;;;;;;;4.68;3.75;;;;;;;;;;4983773;28;20423;-88
2021/03/08 17:26:14;;;;;;;3.53;3.23;;;;;;;;;;5002454;28;20412;-88
2021/03/08 17:28:43;;;;;;;5.85;3.67;;;;;;;;;;4970362;28;20416;-88
2021/03/08 17:31:39;;;;;;;;;;;;;;;;;;;;;
2021/03/08 17:34:14;;;;;;;4.33;3.67;;;;;;;;;;4995316;28;20433;-88
2021/03/08 17:36:42;;;;;;;4.10;3.55;;;;;;;;;;4984383;28;20896;-89
2021/03/08 17:39:19;;;;;;;6.10;4.53;;;;;;;;;;4986644;28;20868;-88
2021/03/08 17:41:45;;;;;;;6.65;4.95;;;;;;;;;;5015929;28;20767;-88
2021/03/08 17:44:14;;;;;;;5.18;4.40;;;;;;;;;;4990921;28;20434;-86
2021/03/08 17:46:39;;;;;;;4.60;4.15;;;;;;;;;;5000900;28;20775;-88
2021/03/08 17:49:17;;;;;;;5.70;4.20;;;;;;;;;;4984177;28;20422;-88
2021/03/08 17:51:43;;;;;;;6.82;4.63;;;;;;;;;;4994314;28;20418;-89